Time,TemperatureF,DewpointF,PressureIn,WindDirection,WindDirectionDegrees,WindSpeedMPH,WindSpeedGustMPH,Humidity,HourlyPrecipIn,Conditions,Clouds,dailyrainin,SoftwareType,DateUTC
2013-02-17 00:02:00,15.0,13.0,-100.00,ENE,65,6.0,9.0,90,0.00,,,-99.99,,2013-02-17 06:02:00,
2013-02-17 00:11:00,15.0,12.0,-100.00,ENE,75,4.0,7.0,90,0.00,,,-99.99,,2013-02-17 06:11:00,
2013-02-17 00:21:00,14.0,12.0,-100.00,ENE,65,6.0,7.0,90,0.00,,,-99.99,,2013-02-17 06:21:00,
2013-02-17 00:31:00,14.0,12.0,-100.00,ENE,75,6.0,7.0,90,0.00,,,-99.99,,2013-02-17 06:31:00,
2013-02-17 00:41:00,14.0,12.0,-100.00,East,85,6.0,9.0,90,0.00,,,-99.99,,2013-02-17 06:41:00,
2013-02-17 00:51:00,14.0,11.0,-100.00,East,95,5.0,9.0,89,0.00,,,-99.99,,2013-02-17 06:51:00,
2013-02-17 01:01:00,14.0,11.0,-100.00,ESE,110,4.0,9.0,88,0.00,,,-99.99,,2013-02-17 07:01:00,
2013-02-17 01:11:00,14.0,11.0,-100.00,SE,135,4.0,6.0,88,0.00,,,-99.99,,2013-02-17 07:11:00,
2013-02-17 01:21:00,14.0,11.0,-100.00,ESE,115,5.0,6.0,88,0.00,,,-99.99,,2013-02-17 07:21:00,
2013-02-17 01:31:00,13.0,10.0,-100.00,ESE,105,2.0,4.0,88,0.00,,,-99.99,,2013-02-17 07:31:00,
2013-02-17 01:41:00,13.0,10.0,-100.00,East,95,2.0,3.0,88,0.00,,,-99.99,,2013-02-17 07:41:00,
2013-02-17 01:51:00,12.0,9.0,-100.00,SE,130,1.0,3.0,88,0.00,,,-99.99,,2013-02-17 07:51:00,
2013-02-17 02:01:00,12.0,9.0,-100.00,South,185,2.0,3.0,88,0.00,,,-99.99,,2013-02-17 08:01:00,
2013-02-17 02:11:00,11.0,9.0,-100.00,SSE,160,2.0,4.0,89,0.00,,,-99.99,,2013-02-17 08:11:00,
2013-02-17 02:21:00,12.0,9.0,-100.00,ESE,115,2.0,4.0,89,0.00,,,-99.99,,2013-02-17 08:21:00,
2013-02-17 02:31:00,12.0,9.0,-100.00,ESE,120,2.0,3.0,90,0.00,,,-99.99,,2013-02-17 08:31:00,
2013-02-17 02:42:00,12.0,9.0,-100.00,ESE,120,2.0,3.0,90,0.00,,,-99.99,,2013-02-17 08:42:00,
2013-02-17 02:52:00,12.0,10.0,-100.00,ESE,120,3.0,4.0,91,0.00,,,-99.99,,2013-02-17 08:52:00,
2013-02-17 03:01:00,12.0,10.0,-100.00,ESE,120,3.0,4.0,91,0.00,,,-99.99,,2013-02-17 09:01:00,
2013-02-17 03:11:00,12.0,10.0,-100.00,ESE,120,2.0,4.0,91,0.00,,,-99.99,,2013-02-17 09:11:00,
2013-02-17 03:21:00,12.0,10.0,-100.00,ESE,110,2.0,4.0,91,0.00,,,-99.99,,2013-02-17 09:21:00,
2013-02-17 03:31:00,12.0,10.0,-100.00,East,100,3.0,4.0,91,0.00,,,-99.99,,2013-02-17 09:31:00,
2013-02-17 03:41:00,12.0,10.0,-100.00,East,100,3.0,4.0,91,0.00,,,-99.99,,2013-02-17 09:41:00,
2013-02-17 03:51:00,11.0,10.0,-100.00,ESE,105,4.0,4.0,91,0.00,,,-99.99,,2013-02-17 09:51:00,
2013-02-17 04:01:00,11.0,10.0,-100.00,East,95,4.0,5.0,91,0.00,,,-99.99,,2013-02-17 10:01:00,
2013-02-17 04:11:00,12.0,10.0,-100.00,ESE,115,2.0,6.0,91,0.00,,,-99.99,,2013-02-17 10:11:00,
2013-02-17 04:21:00,12.0,10.0,-100.00,SE,140,3.0,4.0,91,0.00,,,-99.99,,2013-02-17 10:21:00,
2013-02-17 04:31:00,12.0,10.0,-100.00,SE,125,3.0,4.0,91,0.00,,,-99.99,,2013-02-17 10:31:00,
2013-02-17 04:41:00,12.0,10.0,-100.00,ESE,120,3.0,4.0,91,0.00,,,-99.99,,2013-02-17 10:41:00,
2013-02-17 04:51:00,12.0,10.0,-100.00,ESE,120,4.0,4.0,91,0.00,,,-99.99,,2013-02-17 10:51:00,
2013-02-17 05:01:00,11.0,10.0,-100.00,East,100,2.0,4.0,91,0.00,,,-99.99,,2013-02-17 11:01:00,
2013-02-17 05:11:00,11.0,10.0,-100.00,ESE,105,3.0,4.0,91,0.00,,,-99.99,,2013-02-17 11:11:00,
2013-02-17 05:21:00,11.0,10.0,-100.00,ESE,105,3.0,4.0,91,0.00,,,-99.99,,2013-02-17 11:21:00,
2013-02-17 05:32:00,12.0,10.0,-100.00,ESE,115,3.0,4.0,91,0.00,,,-99.99,,2013-02-17 11:32:00,
2013-02-17 05:42:00,12.0,10.0,-100.00,ESE,110,3.0,4.0,91,0.00,,,-99.99,,2013-02-17 11:42:00,
2013-02-17 05:52:00,12.0,10.0,-100.00,ESE,110,4.0,4.0,91,0.00,,,-99.99,,2013-02-17 11:52:00,
2013-02-17 06:03:00,12.0,10.0,-100.00,ESE,115,4.0,4.0,91,0.00,,,-99.99,,2013-02-17 12:03:00,
2013-02-17 06:11:00,12.0,10.0,-100.00,ESE,110,4.0,6.0,91,0.00,,,-99.99,,2013-02-17 12:11:00,
2013-02-17 06:22:00,12.0,10.0,-100.00,ESE,110,3.0,4.0,91,0.00,,,-99.99,,2013-02-17 12:22:00,
2013-02-17 06:32:00,12.0,10.0,-100.00,SE,125,4.0,6.0,91,0.00,,,-99.99,,2013-02-17 12:32:00,
2013-02-17 06:42:00,12.0,10.0,-100.00,ESE,120,4.0,6.0,91,0.00,,,-99.99,,2013-02-17 12:42:00,
2013-02-17 06:52:00,11.0,10.0,-100.00,ESE,115,3.0,6.0,91,0.00,,,-99.99,,2013-02-17 12:52:00,
2013-02-17 07:02:00,11.0,10.0,-100.00,SE,125,3.0,4.0,91,0.00,,,-99.99,,2013-02-17 13:02:00,
2013-02-17 07:12:00,11.0,10.0,-100.00,ESE,115,3.0,6.0,91,0.00,,,-99.99,,2013-02-17 13:12:00,
2013-02-17 07:21:00,12.0,10.0,-100.00,ESE,120,4.0,5.0,91,0.00,,,-99.99,,2013-02-17 13:21:00,
2013-02-17 07:32:00,12.0,10.0,-100.00,ESE,110,4.0,6.0,91,0.00,,,-99.99,,2013-02-17 13:32:00,
2013-02-17 07:41:00,12.0,10.0,-100.00,ESE,110,4.0,6.0,91,0.00,,,-99.99,,2013-02-17 13:41:00,
2013-02-17 07:51:00,14.0,12.0,-100.00,SE,130,4.0,7.0,91,0.00,,,-99.99,,2013-02-17 13:51:00,
2013-02-17 08:01:00,14.0,12.0,-100.00,ESE,120,4.0,7.0,91,0.00,,,-99.99,,2013-02-17 14:01:00,
2013-02-17 08:11:00,14.0,12.0,-100.00,ESE,120,5.0,7.0,89,0.00,,,-99.99,,2013-02-17 14:11:00,
2013-02-17 08:21:00,15.0,12.0,-100.00,ESE,115,7.0,11.0,87,0.00,,,-99.99,,2013-02-17 14:21:00,
2013-02-17 08:32:00,16.0,13.0,-100.00,SE,130,7.0,11.0,85,0.00,,,-99.99,,2013-02-17 14:32:00,
2013-02-17 08:42:00,17.0,12.0,-100.00,SE,135,7.0,11.0,83,0.00,,,-99.99,,2013-02-17 14:42:00,
2013-02-17 08:52:00,17.0,13.0,-100.00,SSE,150,4.0,10.0,82,0.00,,,-99.99,,2013-02-17 14:52:00,
2013-02-17 09:02:00,18.0,13.0,-100.00,SSE,150,8.0,12.0,80,0.00,,,-99.99,,2013-02-17 15:02:00,
2013-02-17 09:11:00,18.0,13.0,-100.00,SE,125,9.0,12.0,80,0.00,,,-99.99,,2013-02-17 15:11:00,
2013-02-17 09:21:00,19.0,14.0,-100.00,ESE,115,9.0,12.0,79,0.00,,,-99.99,,2013-02-17 15:21:00,
2013-02-17 09:32:00,21.0,15.0,-100.00,SE,145,8.0,12.0,77,0.00,,,-99.99,,2013-02-17 15:32:00,
2013-02-17 09:41:00,21.0,15.0,-100.00,SE,145,8.0,12.0,77,0.00,,,-99.99,,2013-02-17 15:41:00,
2013-02-17 09:52:00,22.0,16.0,-100.00,SSE,150,6.0,10.0,77,0.00,,,-99.99,,2013-02-17 15:52:00,
2013-02-17 10:01:00,22.0,16.0,-100.00,SSE,150,6.0,10.0,77,0.00,,,-99.99,,2013-02-17 16:01:00,
2013-02-17 10:11:00,22.0,16.0,-100.00,SE,140,11.0,14.0,75,0.00,,,-99.99,,2013-02-17 16:11:00,
2013-02-17 10:21:00,23.0,16.0,-100.00,ESE,120,7.0,12.0,74,0.00,,,-99.99,,2013-02-17 16:21:00,
2013-02-17 10:32:00,23.0,16.0,-100.00,SE,130,7.0,13.0,74,0.00,,,-99.99,,2013-02-17 16:32:00,
2013-02-17 10:41:00,23.0,16.0,-100.00,SE,130,7.0,13.0,74,0.00,,,-99.99,,2013-02-17 16:41:00,
2013-02-17 10:51:00,25.0,17.0,-100.00,SE,130,9.0,15.0,70,0.00,,,-99.99,,2013-02-17 16:51:00,
2013-02-17 11:02:00,25.0,17.0,-100.00,SE,130,9.0,15.0,70,0.00,,,-99.99,,2013-02-17 17:02:00,
2013-02-17 11:11:00,26.0,17.0,-100.00,SE,135,9.0,13.0,68,0.00,,,-99.99,,2013-02-17 17:11:00,
2013-02-17 11:21:00,26.0,17.0,-100.00,SE,140,10.0,15.0,67,0.00,,,-99.99,,2013-02-17 17:21:00,
2013-02-17 11:32:00,27.0,17.0,-100.00,SE,135,10.0,17.0,64,0.00,,,-99.99,,2013-02-17 17:32:00,
2013-02-17 11:41:00,27.0,17.0,-100.00,SE,135,10.0,17.0,64,0.00,,,-99.99,,2013-02-17 17:41:00,
2013-02-17 11:52:00,28.0,17.0,-100.00,ESE,120,10.0,17.0,63,0.00,,,-99.99,,2013-02-17 17:52:00,
2013-02-17 12:02:00,29.0,18.0,-100.00,ESE,120,10.0,15.0,63,0.00,,,-99.99,,2013-02-17 18:02:00,
2013-02-17 12:11:00,29.0,17.0,-100.00,SE,145,14.0,18.0,62,0.00,,,-99.99,,2013-02-17 18:11:00,
2013-02-17 12:21:00,30.0,18.0,-100.00,SE,135,11.0,17.0,61,0.00,,,-99.99,,2013-02-17 18:21:00,
2013-02-17 12:33:00,30.0,18.0,-100.00,ESE,115,12.0,16.0,60,0.00,,,-99.99,,2013-02-17 18:33:00,
2013-02-17 12:42:00,31.0,18.0,-100.00,SE,135,8.0,14.0,59,0.00,,,-99.99,,2013-02-17 18:42:00,
2013-02-17 12:52:00,31.0,18.0,-100.00,SSE,150,12.0,16.0,58,0.00,,,-99.99,,2013-02-17 18:52:00,
2013-02-17 13:01:00,31.0,18.0,-100.00,SSE,150,12.0,16.0,58,0.00,,,-99.99,,2013-02-17 19:01:00,
2013-02-17 13:11:00,31.0,18.0,-100.00,SE,140,12.0,17.0,58,0.00,,,-99.99,,2013-02-17 19:11:00,
2013-02-17 13:21:00,32.0,19.0,-100.00,SE,140,9.0,17.0,58,0.00,,,-99.99,,2013-02-17 19:21:00,
2013-02-17 13:32:00,32.0,19.0,-100.00,SSE,155,10.0,15.0,58,0.00,,,-99.99,,2013-02-17 19:32:00,
2013-02-17 13:41:00,33.0,19.0,-100.00,SE,145,9.0,17.0,58,0.00,,,-99.99,,2013-02-17 19:41:00,
2013-02-17 13:51:00,33.0,19.0,-100.00,SSE,160,10.0,16.0,56,0.00,,,-99.99,,2013-02-17 19:51:00,
2013-02-17 14:02:00,33.0,19.0,-100.00,SSE,160,10.0,16.0,56,0.00,,,-99.99,,2013-02-17 20:02:00,
2013-02-17 14:11:00,34.0,20.0,-100.00,ESE,120,9.0,14.0,56,0.00,,,-99.99,,2013-02-17 20:11:00,
2013-02-17 14:21:00,33.0,20.0,-100.00,ESE,120,14.0,19.0,56,0.00,,,-99.99,,2013-02-17 20:21:00,
2013-02-17 14:32:00,34.0,20.0,-100.00,ESE,120,13.0,17.0,56,0.00,,,-99.99,,2013-02-17 20:32:00,
2013-02-17 14:42:00,34.0,20.0,-100.00,SE,145,12.0,17.0,56,0.00,,,-99.99,,2013-02-17 20:42:00,
2013-02-17 14:52:00,34.0,20.0,-100.00,ESE,120,14.0,22.0,56,0.00,,,-99.99,,2013-02-17 20:52:00,
2013-02-17 15:02:00,34.0,20.0,-100.00,SE,140,10.0,19.0,56,0.00,,,-99.99,,2013-02-17 21:02:00,
2013-02-17 15:11:00,34.0,20.0,-100.00,SE,130,12.0,19.0,56,0.00,,,-99.99,,2013-02-17 21:11:00,
2013-02-17 15:21:00,35.0,20.0,-100.00,SE,145,14.0,20.0,55,0.00,,,-99.99,,2013-02-17 21:21:00,
2013-02-17 15:32:00,35.0,20.0,-100.00,SE,140,14.0,20.0,54,0.00,,,-99.99,,2013-02-17 21:32:00,
2013-02-17 15:42:00,36.0,21.0,-100.00,SE,140,12.0,19.0,54,0.00,,,-99.99,,2013-02-17 21:42:00,
2013-02-17 15:52:00,36.0,20.0,-100.00,SE,140,11.0,20.0,53,0.00,,,-99.99,,2013-02-17 21:52:00,
2013-02-17 16:01:00,36.0,20.0,-100.00,SE,140,11.0,20.0,53,0.00,,,-99.99,,2013-02-17 22:01:00,
2013-02-17 16:12:00,36.0,20.0,-100.00,SSE,150,10.0,18.0,52,0.00,,,-99.99,,2013-02-17 22:12:00,
2013-02-17 16:21:00,36.0,20.0,-100.00,SE,145,11.0,18.0,52,0.00,,,-99.99,,2013-02-17 22:21:00,
2013-02-17 16:32:00,35.0,20.0,-100.00,SE,140,12.0,21.0,52,0.00,,,-99.99,,2013-02-17 22:32:00,
2013-02-17 16:41:00,35.0,20.0,-100.00,SE,125,12.0,19.0,52,0.00,,,-99.99,,2013-02-17 22:41:00,
2013-02-17 16:52:00,35.0,20.0,-100.00,SE,125,8.0,19.0,53,0.00,,,-99.99,,2013-02-17 22:52:00,
2013-02-17 17:02:00,35.0,19.0,-100.00,SE,125,10.0,20.0,53,0.00,,,-99.99,,2013-02-17 23:02:00,
2013-02-17 17:11:00,34.0,19.0,-100.00,ESE,120,12.0,21.0,54,0.00,,,-99.99,,2013-02-17 23:11:00,
2013-02-17 17:21:00,34.0,19.0,-100.00,SE,130,10.0,18.0,55,0.00,,,-99.99,,2013-02-17 23:21:00,
2013-02-17 17:32:00,33.0,19.0,-100.00,SE,130,11.0,17.0,55,0.00,,,-99.99,,2013-02-17 23:32:00,
2013-02-17 17:42:00,33.0,19.0,-100.00,SE,140,9.0,16.0,57,0.00,,,-99.99,,2013-02-17 23:42:00,
2013-02-17 17:52:00,33.0,20.0,-100.00,SE,130,8.0,16.0,58,0.00,,,-99.99,,2013-02-17 23:52:00,
2013-02-17 18:01:00,32.0,20.0,-100.00,SE,130,9.0,16.0,59,0.00,,,-99.99,,2013-02-18 00:01:00,
2013-02-17 18:11:00,32.0,20.0,-100.00,SE,130,12.0,17.0,60,0.00,,,-99.99,,2013-02-18 00:11:00,
2013-02-17 18:22:00,32.0,20.0,-100.00,SE,125,12.0,18.0,60,0.00,,,-99.99,,2013-02-18 00:22:00,
2013-02-17 18:32:00,32.0,20.0,-100.00,SE,130,9.0,16.0,60,0.00,,,-99.99,,2013-02-18 00:32:00,
2013-02-17 18:41:00,32.0,20.0,-100.00,SE,130,9.0,16.0,60,0.00,,,-99.99,,2013-02-18 00:41:00,
2013-02-17 18:52:00,32.0,20.0,-100.00,ESE,120,10.0,16.0,63,0.00,,,-99.99,,2013-02-18 00:52:00,
2013-02-17 19:01:00,32.0,20.0,-100.00,ESE,120,10.0,16.0,63,0.00,,,-99.99,,2013-02-18 01:01:00,
2013-02-17 19:11:00,31.0,21.0,-100.00,SE,135,11.0,17.0,63,0.00,,,-99.99,,2013-02-18 01:11:00,
2013-02-17 19:21:00,31.0,21.0,-100.00,SE,130,7.0,13.0,64,0.00,,,-99.99,,2013-02-18 01:21:00,
2013-02-17 19:31:00,31.0,21.0,-100.00,SE,125,7.0,16.0,64,0.00,,,-99.99,,2013-02-18 01:31:00,
2013-02-17 19:41:00,31.0,21.0,-100.00,SE,125,11.0,16.0,65,0.00,,,-99.99,,2013-02-18 01:41:00,
2013-02-17 19:51:00,31.0,21.0,-100.00,SE,125,7.0,16.0,66,0.00,,,-99.99,,2013-02-18 01:51:00,
2013-02-17 20:01:00,31.0,21.0,-100.00,ESE,120,9.0,16.0,66,0.00,,,-99.99,,2013-02-18 02:01:00,
2013-02-17 20:11:00,31.0,22.0,-100.00,SE,130,9.0,16.0,67,0.00,,,-99.99,,2013-02-18 02:11:00,
2013-02-17 20:21:00,31.0,22.0,-100.00,SE,135,11.0,16.0,67,0.00,,,-99.99,,2013-02-18 02:21:00,
2013-02-17 20:32:00,31.0,22.0,-100.00,SE,140,12.0,16.0,67,0.00,,,-99.99,,2013-02-18 02:32:00,
2013-02-17 20:41:00,32.0,22.0,-100.00,SE,135,9.0,17.0,67,0.00,,,-99.99,,2013-02-18 02:41:00,
2013-02-17 20:52:00,32.0,22.0,-100.00,SE,140,13.0,18.0,67,0.00,,,-99.99,,2013-02-18 02:52:00,
2013-02-17 21:01:00,32.0,22.0,-100.00,SE,140,13.0,18.0,67,0.00,,,-99.99,,2013-02-18 03:01:00,
2013-02-17 21:11:00,32.0,22.0,-100.00,SE,130,12.0,22.0,67,0.00,,,-99.99,,2013-02-18 03:11:00,
2013-02-17 21:21:00,32.0,22.0,-100.00,ESE,120,12.0,19.0,67,0.00,,,-99.99,,2013-02-18 03:21:00,
2013-02-17 21:31:00,32.0,22.0,-100.00,SE,145,13.0,20.0,68,0.00,,,-99.99,,2013-02-18 03:31:00,
2013-02-17 21:42:00,32.0,22.0,-100.00,SE,145,13.0,20.0,68,0.00,,,-99.99,,2013-02-18 03:42:00,
2013-02-17 21:51:00,31.0,22.0,-100.00,SE,135,11.0,16.0,68,0.00,,,-99.99,,2013-02-18 03:51:00,
2013-02-17 22:01:00,31.0,23.0,-100.00,SE,145,11.0,18.0,69,0.00,,,-99.99,,2013-02-18 04:01:00,
2013-02-17 22:11:00,31.0,23.0,-100.00,ESE,120,11.0,21.0,69,0.00,,,-99.99,,2013-02-18 04:11:00,
2013-02-17 22:21:00,31.0,23.0,-100.00,SE,125,10.0,17.0,70,0.00,,,-99.99,,2013-02-18 04:21:00,
2013-02-17 22:32:00,31.0,23.0,-100.00,SE,140,9.0,19.0,71,0.00,,,-99.99,,2013-02-18 04:32:00,
2013-02-17 22:41:00,31.0,23.0,-100.00,SE,140,9.0,19.0,71,0.00,,,-99.99,,2013-02-18 04:41:00,
2013-02-17 22:51:00,31.0,23.0,-100.00,SE,130,12.0,16.0,71,0.00,,,-99.99,,2013-02-18 04:51:00,
2013-02-17 23:02:00,31.0,23.0,-100.00,SE,130,11.0,16.0,71,0.00,,,-99.99,,2013-02-18 05:02:00,
2013-02-17 23:11:00,31.0,23.0,-100.00,SE,135,10.0,20.0,71,0.00,,,-99.99,,2013-02-18 05:11:00,
2013-02-17 23:21:00,31.0,23.0,-100.00,SE,140,12.0,18.0,71,0.00,,,-99.99,,2013-02-18 05:21:00,
2013-02-17 23:31:00,31.0,23.0,-100.00,SE,140,11.0,17.0,71,0.00,,,-99.99,,2013-02-18 05:31:00,
2013-02-17 23:41:00,31.0,24.0,-100.00,SE,130,11.0,17.0,72,0.00,,,-99.99,,2013-02-18 05:41:00,
2013-02-17 23:52:00,31.0,24.0,-100.00,SE,140,11.0,16.0,74,0.00,,,-99.99,,2013-02-18 05:52:00,